createdAt,value
2018-07-21T00:00:34.782Z,0
2018-07-21T00:01:36.445Z,0
2018-07-21T00:02:38.059Z,0
2018-07-21T00:03:39.774Z,0
2018-07-21T00:04:41.472Z,0
2018-07-21T00:05:43.114Z,0
2018-07-21T00:06:44.824Z,0
2018-07-21T00:07:46.615Z,0
2018-07-21T00:08:48.246Z,0
2018-07-21T00:09:49.970Z,0
2018-07-21T00:10:51.737Z,0
2018-07-21T00:11:53.329Z,0
2018-07-21T00:12:54.982Z,0
2018-07-21T00:13:56.702Z,0
2018-07-21T00:14:58.355Z,0
2018-07-21T00:16:00.042Z,0
2018-07-21T00:17:01.754Z,0
2018-07-21T00:18:03.421Z,0
2018-07-21T00:19:05.123Z,0
2018-07-21T00:20:06.860Z,0
2018-07-21T00:21:08.513Z,0
2018-07-21T00:22:10.220Z,0
2018-07-21T00:23:11.977Z,0
2018-07-21T00:24:13.638Z,0
2018-07-21T00:25:15.296Z,0
2018-07-21T00:26:16.970Z,0
2018-07-21T00:27:18.626Z,0
2018-07-21T00:28:20.356Z,0
2018-07-21T00:29:22.055Z,0
2018-07-21T00:30:23.671Z,0
2018-07-21T00:31:25.431Z,0
2018-07-21T00:32:27.162Z,0
2018-07-21T00:33:28.848Z,0
2018-07-21T00:34:30.497Z,0
2018-07-21T00:35:32.152Z,0
2018-07-21T00:36:33.885Z,0
2018-07-21T00:37:35.557Z,0
2018-07-21T00:38:37.224Z,0
2018-07-21T00:39:38.859Z,0
2018-07-21T00:40:40.569Z,0
2018-07-21T00:41:42.139Z,0
2018-07-21T00:42:43.887Z,0
2018-07-21T00:43:45.649Z,0
2018-07-21T00:44:47.346Z,0
2018-07-21T00:45:49.024Z,0
2018-07-21T00:46:50.727Z,0
2018-07-21T00:47:52.392Z,0
2018-07-21T00:48:54.189Z,0
2018-07-21T00:49:55.925Z,0
2018-07-21T00:50:57.569Z,0
2018-07-21T00:51:59.229Z,0
2018-07-21T00:53:00.908Z,0
2018-07-21T00:54:02.512Z,0
2018-07-21T00:55:04.185Z,0
2018-07-21T00:56:05.765Z,0
2018-07-21T00:57:07.426Z,0
2018-07-21T00:58:09.072Z,0
2018-07-21T00:59:10.661Z,0
2018-07-21T01:00:12.291Z,0
2018-07-21T01:01:13.986Z,0
2018-07-21T01:02:15.664Z,0
2018-07-21T01:03:17.407Z,0
2018-07-21T01:04:19.012Z,0
2018-07-21T01:05:20.781Z,0
2018-07-21T01:06:22.483Z,0
2018-07-21T01:07:24.226Z,0
2018-07-21T01:08:25.947Z,0
2018-07-21T01:09:27.665Z,0
2018-07-21T01:10:29.427Z,0
2018-07-21T01:11:31.106Z,0
2018-07-21T01:12:32.823Z,0
2018-07-21T01:13:34.505Z,0
2018-07-21T01:14:36.173Z,0
2018-07-21T01:15:37.823Z,0
2018-07-21T01:16:39.550Z,0
2018-07-21T01:17:41.272Z,0
2018-07-21T01:18:42.880Z,0
2018-07-21T01:19:44.555Z,0
2018-07-21T01:20:46.163Z,0
2018-07-21T01:21:47.780Z,0
2018-07-21T01:22:49.450Z,0
2018-07-21T01:23:51.128Z,0
2018-07-21T01:24:52.794Z,0
2018-07-21T01:25:54.492Z,0
2018-07-21T01:26:56.207Z,0
2018-07-21T01:27:57.918Z,0
2018-07-21T01:28:59.610Z,0
2018-07-21T01:30:01.335Z,0
2018-07-21T01:31:02.967Z,0
2018-07-21T01:32:04.626Z,0
2018-07-21T01:33:06.390Z,0
2018-07-21T01:34:08.027Z,0
2018-07-21T01:35:09.629Z,0
2018-07-21T01:36:11.278Z,0
2018-07-21T01:37:13.041Z,0
2018-07-21T01:38:14.676Z,0
2018-07-21T01:39:16.428Z,0
2018-07-21T01:40:18.117Z,0
2018-07-21T01:41:19.856Z,0
2018-07-21T01:42:21.459Z,0
2018-07-21T01:43:23.124Z,0
2018-07-21T01:44:24.728Z,0
2018-07-21T01:45:26.346Z,0
2018-07-21T01:46:28.004Z,0
2018-07-21T01:47:29.603Z,0
2018-07-21T01:48:31.407Z,0
2018-07-21T01:49:33.112Z,0
2018-07-21T01:50:34.732Z,0
2018-07-21T01:51:36.430Z,0
2018-07-21T01:52:38.146Z,0
2018-07-21T01:53:39.848Z,0
2018-07-21T01:54:41.531Z,0
2018-07-21T01:55:43.219Z,0
2018-07-21T01:56:44.911Z,0
2018-07-21T01:57:46.687Z,0
2018-07-21T01:58:48.337Z,0
2018-07-21T01:59:49.992Z,0
2018-07-21T02:00:51.625Z,0
2018-07-21T02:01:53.343Z,0
2018-07-21T02:02:54.991Z,0
2018-07-21T02:03:56.727Z,0
2018-07-21T02:04:58.421Z,0
2018-07-21T02:06:00.109Z,0
2018-07-21T02:07:01.810Z,0
2018-07-21T02:08:03.450Z,0
2018-07-21T02:09:05.037Z,0
2018-07-21T02:10:06.811Z,0
2018-07-21T02:11:08.436Z,0
2018-07-21T02:12:10.245Z,0
2018-07-21T02:13:11.938Z,0
2018-07-21T02:14:13.604Z,0
2018-07-21T02:15:15.387Z,0
2018-07-21T02:16:17.115Z,0
2018-07-21T02:17:18.872Z,0
2018-07-21T02:18:20.643Z,0
2018-07-21T02:19:22.409Z,0
2018-07-21T02:20:23.988Z,0
2018-07-21T02:21:25.680Z,0
2018-07-21T02:22:27.392Z,0
2018-07-21T02:23:29.128Z,0
2018-07-21T02:24:30.773Z,0
2018-07-21T02:25:32.331Z,0
2018-07-21T02:26:34.144Z,0
2018-07-21T02:27:35.801Z,0
2018-07-21T02:28:37.469Z,0
2018-07-21T02:29:39.177Z,0
2018-07-21T02:30:40.797Z,0
2018-07-21T02:31:42.551Z,0
2018-07-21T02:32:44.292Z,0
2018-07-21T02:33:45.974Z,0
2018-07-21T02:34:47.609Z,0
2018-07-21T02:35:49.365Z,0
2018-07-21T02:36:51.012Z,0
2018-07-21T02:37:52.695Z,0
2018-07-21T02:38:54.275Z,0
2018-07-21T02:39:55.937Z,0
2018-07-21T02:40:57.570Z,0
2018-07-21T02:41:59.184Z,0
2018-07-21T02:43:00.879Z,0
2018-07-21T02:44:02.519Z,0
2018-07-21T02:45:04.135Z,0
2018-07-21T02:46:05.777Z,0
2018-07-21T02:47:07.498Z,0
2018-07-21T02:48:09.155Z,0
2018-07-21T02:49:10.754Z,0
2018-07-21T02:50:12.460Z,0
2018-07-21T02:51:14.187Z,0
2018-07-21T02:52:15.939Z,0
2018-07-21T02:53:17.695Z,0
2018-07-21T02:54:19.306Z,0
2018-07-21T02:55:21.082Z,0
2018-07-21T02:56:22.827Z,0
2018-07-21T02:57:24.423Z,0
2018-07-21T02:58:26.103Z,0
2018-07-21T02:59:27.805Z,0
2018-07-21T03:00:29.442Z,0
2018-07-21T03:01:31.053Z,0
2018-07-21T03:02:32.882Z,0
2018-07-21T03:03:34.504Z,0
2018-07-21T03:04:36.221Z,0
2018-07-21T03:05:37.848Z,0
2018-07-21T03:06:39.646Z,0
2018-07-21T03:07:41.209Z,0
2018-07-21T03:08:42.810Z,0
2018-07-21T03:09:44.578Z,0
2018-07-21T03:10:46.227Z,0
2018-07-21T03:11:47.851Z,0
2018-07-21T03:12:49.456Z,0
2018-07-21T03:13:51.141Z,0
2018-07-21T03:14:52.830Z,0
2018-07-21T03:15:54.557Z,0
2018-07-21T03:16:56.293Z,0
2018-07-21T03:17:58.080Z,0
2018-07-21T03:18:59.775Z,0
2018-07-21T03:20:01.441Z,0
2018-07-21T03:21:03.049Z,0
2018-07-21T03:22:04.743Z,0
2018-07-21T03:23:06.437Z,0
2018-07-21T03:24:08.112Z,0
2018-07-21T03:25:09.720Z,0
2018-07-21T03:26:11.459Z,0
2018-07-21T03:27:13.098Z,0
2018-07-21T03:28:14.726Z,0
2018-07-21T03:29:16.378Z,0
2018-07-21T03:30:18.120Z,5
2018-07-21T03:31:19.718Z,5
2018-07-21T03:32:21.382Z,5
2018-07-21T03:33:22.985Z,5
2018-07-21T03:34:24.633Z,5
2018-07-21T03:35:26.219Z,5
2018-07-21T03:36:27.924Z,5
2018-07-21T03:37:29.597Z,5
2018-07-21T03:38:31.225Z,5
2018-07-21T03:39:32.906Z,5
2018-07-21T03:40:34.679Z,5
2018-07-21T03:41:36.293Z,5
2018-07-21T03:42:37.951Z,10
2018-07-21T03:43:39.693Z,10
2018-07-21T03:44:41.356Z,10
2018-07-21T03:45:43.027Z,10
2018-07-21T03:46:44.736Z,10
2018-07-21T03:47:46.396Z,10
2018-07-21T03:48:48.139Z,15
2018-07-21T03:49:49.703Z,15
2018-07-21T03:50:51.274Z,15
2018-07-21T03:51:52.980Z,15
2018-07-21T03:52:54.660Z,15
2018-07-21T03:53:56.262Z,15
2018-07-21T03:54:57.957Z,15
2018-07-21T03:55:59.559Z,20
2018-07-21T03:57:01.169Z,20
2018-07-21T03:58:02.806Z,20
2018-07-21T03:59:04.546Z,20
2018-07-21T04:00:06.185Z,20
2018-07-21T04:01:07.864Z,25
2018-07-21T04:02:09.543Z,25
2018-07-21T04:03:11.172Z,25
2018-07-21T04:04:12.810Z,30
2018-07-21T04:05:14.381Z,30
2018-07-21T04:06:16.031Z,30
2018-07-21T04:07:17.728Z,30
2018-07-21T04:08:19.425Z,30
2018-07-21T04:09:21.069Z,30
2018-07-21T04:10:22.707Z,30
2018-07-21T04:11:24.348Z,30
2018-07-21T04:12:25.982Z,35
2018-07-21T04:13:27.649Z,35
2018-07-21T04:14:29.279Z,35
2018-07-21T04:15:30.954Z,35
2018-07-21T04:16:32.655Z,40
2018-07-21T04:17:34.313Z,40
2018-07-21T04:18:35.929Z,40
2018-07-21T04:19:37.673Z,40
2018-07-21T04:20:39.390Z,45
2018-07-21T04:21:41.059Z,45
2018-07-21T04:22:42.730Z,45
2018-07-21T04:23:44.365Z,45
2018-07-21T04:24:46.091Z,50
2018-07-21T04:25:47.630Z,50
2018-07-21T04:26:49.239Z,50
2018-07-21T04:27:50.874Z,55
2018-07-21T04:28:52.525Z,55
2018-07-21T04:29:54.167Z,55
2018-07-21T04:30:55.874Z,55
2018-07-21T04:31:57.545Z,55
2018-07-21T04:32:59.208Z,55
2018-07-21T04:34:00.859Z,55
2018-07-21T04:35:02.588Z,60
2018-07-21T04:36:04.276Z,60
2018-07-21T04:37:05.972Z,60
2018-07-21T04:38:07.620Z,60
2018-07-21T04:39:09.316Z,60
2018-07-21T04:40:10.986Z,60
2018-07-21T04:41:12.663Z,60
2018-07-21T04:42:14.292Z,60
2018-07-21T04:43:15.959Z,65
2018-07-21T04:44:17.620Z,70
2018-07-21T04:45:19.237Z,70
2018-07-21T04:46:20.921Z,80
2018-07-21T04:47:22.638Z,85
2018-07-21T04:48:24.321Z,90
2018-07-21T04:49:25.976Z,95
2018-07-21T04:50:27.622Z,100
2018-07-21T04:51:29.223Z,100
2018-07-21T04:52:30.910Z,100
2018-07-21T04:53:32.629Z,105
2018-07-21T04:54:34.274Z,110
2018-07-21T04:55:35.938Z,115
2018-07-21T04:56:37.562Z,115
2018-07-21T04:57:39.280Z,115
2018-07-21T04:58:41.032Z,110
2018-07-21T04:59:42.664Z,105
2018-07-21T05:00:44.374Z,110
2018-07-21T05:01:45.979Z,110
2018-07-21T05:02:47.593Z,120
2018-07-21T05:03:49.326Z,125
2018-07-21T05:04:50.979Z,130
2018-07-21T05:05:52.621Z,130
2018-07-21T05:06:54.312Z,130
2018-07-21T05:07:55.896Z,125
2018-07-21T05:08:57.579Z,125
2018-07-21T05:09:59.219Z,120
2018-07-21T05:11:00.895Z,120
2018-07-21T05:12:02.493Z,115
2018-07-21T05:13:04.423Z,115
2018-07-21T05:14:06.046Z,120
2018-07-21T05:15:07.739Z,125
2018-07-21T05:16:09.373Z,125
2018-07-21T05:17:11.039Z,130
2018-07-21T05:18:12.706Z,135
2018-07-21T05:19:14.410Z,135
2018-07-21T05:20:16.022Z,140
2018-07-21T05:21:17.753Z,140
2018-07-21T05:22:19.452Z,145
2018-07-21T05:23:21.142Z,150
2018-07-21T05:24:22.786Z,150
2018-07-21T05:25:24.421Z,155
2018-07-21T05:26:26.115Z,160
2018-07-21T05:27:27.800Z,160
2018-07-21T05:28:29.400Z,160
2018-07-21T05:29:31.122Z,165
2018-07-21T05:30:32.742Z,165
2018-07-21T05:31:34.408Z,170
2018-07-21T05:32:36.113Z,175
2018-07-21T05:33:37.808Z,175
2018-07-21T05:34:39.497Z,175
2018-07-21T05:35:41.159Z,175
2018-07-21T05:36:42.741Z,175
2018-07-21T05:37:44.441Z,180
2018-07-21T05:38:46.203Z,180
2018-07-21T05:39:47.904Z,185
2018-07-21T05:40:49.650Z,190
2018-07-21T05:41:51.340Z,185
2018-07-21T05:42:53.043Z,185
2018-07-21T05:43:54.645Z,190
2018-07-21T05:44:56.335Z,190
2018-07-21T05:45:57.966Z,185
2018-07-21T05:46:59.600Z,185
2018-07-21T05:48:01.272Z,180
2018-07-21T05:49:02.970Z,180
2018-07-21T05:50:04.728Z,180
2018-07-21T05:51:06.394Z,180
2018-07-21T05:52:08.106Z,190
2018-07-21T05:53:09.792Z,205
2018-07-21T05:54:11.483Z,215
2018-07-21T05:55:13.201Z,230
2018-07-21T05:56:14.831Z,240
2018-07-21T05:57:16.422Z,245
2018-07-21T05:58:18.125Z,250
2018-07-21T05:59:19.793Z,255
2018-07-21T06:00:21.545Z,255
2018-07-21T06:01:23.226Z,255
2018-07-21T06:02:24.856Z,255
2018-07-21T06:03:26.589Z,250
2018-07-21T06:04:28.199Z,250
2018-07-21T06:05:29.892Z,250
2018-07-21T06:06:31.581Z,250
2018-07-21T06:07:33.301Z,250
2018-07-21T06:08:35.036Z,250
2018-07-21T06:09:36.670Z,255
2018-07-21T06:10:38.392Z,260
2018-07-21T06:11:40.093Z,270
2018-07-21T06:12:41.814Z,275
2018-07-21T06:13:43.527Z,290
2018-07-21T06:14:45.241Z,280
2018-07-21T06:15:46.902Z,280
2018-07-21T06:16:48.550Z,290
2018-07-21T06:17:50.238Z,285
2018-07-21T06:18:51.791Z,290
2018-07-21T06:19:53.525Z,300
2018-07-21T06:20:55.285Z,300
2018-07-21T06:21:56.889Z,310
2018-07-21T06:22:58.591Z,320
2018-07-21T06:24:00.340Z,325
2018-07-21T06:25:02.112Z,330
2018-07-21T06:26:03.813Z,340
2018-07-21T06:27:05.544Z,340
2018-07-21T06:28:07.304Z,345
2018-07-21T06:29:08.938Z,345
2018-07-21T06:30:10.732Z,350
2018-07-21T06:31:12.418Z,355
2018-07-21T06:32:14.151Z,355
2018-07-21T06:33:15.816Z,355
2018-07-21T06:34:17.549Z,350
2018-07-21T06:35:19.309Z,345
2018-07-21T06:36:21.071Z,340
2018-07-21T06:37:22.821Z,340
2018-07-21T06:38:24.474Z,340
2018-07-21T06:39:26.299Z,345
2018-07-21T06:40:28.037Z,350
2018-07-21T06:41:29.701Z,350
2018-07-21T06:42:31.342Z,355
2018-07-21T06:43:33.012Z,355
2018-07-21T06:44:34.643Z,360
2018-07-21T06:45:36.341Z,370
2018-07-21T06:46:38.006Z,380
2018-07-21T06:47:39.667Z,380
2018-07-21T06:48:41.389Z,385
2018-07-21T06:49:43.060Z,380
2018-07-21T06:50:44.629Z,370
2018-07-21T06:51:46.418Z,365
2018-07-21T06:52:48.139Z,365
2018-07-21T06:53:49.812Z,365
2018-07-21T06:54:51.529Z,370
2018-07-21T06:55:53.249Z,370
2018-07-21T06:56:54.902Z,375
2018-07-21T06:57:56.570Z,380
2018-07-21T06:58:58.272Z,395
2018-07-21T06:59:59.938Z,395
2018-07-21T07:01:01.645Z,405
2018-07-21T07:02:03.358Z,410
2018-07-21T07:03:05.084Z,420
2018-07-21T07:04:06.783Z,430
2018-07-21T07:05:08.392Z,440
2018-07-21T07:06:10.214Z,445
2018-07-21T07:07:11.893Z,450
2018-07-21T07:08:13.567Z,450
2018-07-21T07:09:15.295Z,450
2018-07-21T07:10:17.043Z,450
2018-07-21T07:11:18.622Z,450
2018-07-21T07:12:20.358Z,450
2018-07-21T07:13:22.090Z,450
2018-07-21T07:14:23.784Z,445
2018-07-21T07:15:25.481Z,435
2018-07-21T07:16:27.093Z,425
2018-07-21T07:17:28.874Z,415
2018-07-21T07:18:30.570Z,410
2018-07-21T07:19:32.301Z,405
2018-07-21T07:20:34.009Z,405
2018-07-21T07:21:35.778Z,400
2018-07-21T07:22:37.416Z,395
2018-07-21T07:23:39.201Z,390
2018-07-21T07:24:40.948Z,390
2018-07-21T07:25:42.745Z,395
2018-07-21T07:26:44.568Z,400
2018-07-21T07:27:46.282Z,420
2018-07-21T07:28:47.903Z,430
2018-07-21T07:29:49.488Z,440
2018-07-21T07:30:51.223Z,445
2018-07-21T07:31:52.822Z,445
2018-07-21T07:32:54.560Z,450
2018-07-21T07:33:56.337Z,455
2018-07-21T07:34:58.096Z,470
2018-07-21T07:35:59.787Z,485
2018-07-21T07:37:01.435Z,495
2018-07-21T07:38:03.113Z,510
2018-07-21T07:39:04.741Z,525
2018-07-21T07:40:06.456Z,525
2018-07-21T07:41:08.163Z,520
2018-07-21T07:42:09.915Z,510
2018-07-21T07:43:11.633Z,500
2018-07-21T07:44:13.266Z,490
2018-07-21T07:45:14.878Z,490
2018-07-21T07:46:16.649Z,480
2018-07-21T07:47:18.283Z,470
2018-07-21T07:48:19.987Z,470
2018-07-21T07:49:21.679Z,470
2018-07-21T07:50:23.366Z,465
2018-07-21T07:51:25.092Z,470
2018-07-21T07:52:26.898Z,475
2018-07-21T07:53:28.612Z,475
2018-07-21T07:54:30.271Z,475
2018-07-21T07:55:31.981Z,470
2018-07-21T07:56:33.703Z,465
2018-07-21T07:57:35.460Z,465
2018-07-21T07:58:37.140Z,465
2018-07-21T07:59:38.892Z,465
2018-07-21T08:00:40.622Z,475
2018-07-21T08:01:42.221Z,480
2018-07-21T08:02:43.936Z,490
2018-07-21T08:03:45.607Z,500
2018-07-21T08:04:47.314Z,505
2018-07-21T08:05:49.028Z,510
2018-07-21T08:06:50.657Z,510
2018-07-21T08:07:52.358Z,510
2018-07-21T08:08:54.076Z,505
2018-07-21T08:09:55.859Z,505
2018-07-21T08:10:57.699Z,495
2018-07-21T08:11:59.355Z,485
2018-07-21T08:13:01.017Z,480
2018-07-21T08:14:02.733Z,475
2018-07-21T08:15:04.462Z,470
2018-07-21T08:16:06.131Z,465
2018-07-21T08:17:07.769Z,460
2018-07-21T08:18:09.490Z,450
2018-07-21T08:19:11.204Z,445
2018-07-21T08:20:12.844Z,435
2018-07-21T08:21:14.472Z,425
2018-07-21T08:22:16.226Z,415
2018-07-21T08:23:17.800Z,405
2018-07-21T08:24:19.439Z,400
2018-07-21T08:25:21.202Z,400
2018-07-21T08:26:22.848Z,405
2018-07-21T08:27:24.651Z,415
2018-07-21T08:28:26.336Z,425
2018-07-21T08:29:28.080Z,435
2018-07-21T08:30:29.840Z,445
2018-07-21T08:31:31.487Z,460
2018-07-21T08:32:33.178Z,470
2018-07-21T08:33:34.871Z,490
2018-07-21T08:34:36.567Z,515
2018-07-21T08:35:38.352Z,535
2018-07-21T08:36:40.155Z,555
2018-07-21T08:37:41.879Z,575
2018-07-21T08:38:43.527Z,595
2018-07-21T08:39:45.199Z,620
2018-07-21T08:40:46.889Z,645
2018-07-21T08:41:48.544Z,660
2018-07-21T08:42:50.342Z,690
2018-07-21T08:43:51.966Z,725
2018-07-21T08:44:53.661Z,755
2018-07-21T08:45:55.280Z,760
2018-07-21T08:46:57.086Z,755
2018-07-21T08:47:58.730Z,760
2018-07-21T08:49:00.470Z,775
2018-07-21T08:50:02.164Z,790
2018-07-21T08:51:03.914Z,810
2018-07-21T08:52:05.586Z,820
2018-07-21T08:53:07.306Z,850
2018-07-21T08:54:09.052Z,875
2018-07-21T08:55:10.809Z,905
2018-07-21T08:56:12.555Z,925
2018-07-21T08:57:14.222Z,910
2018-07-21T08:58:15.996Z,860
2018-07-21T08:59:17.653Z,800
2018-07-21T09:00:19.355Z,765
2018-07-21T09:01:21.053Z,750
2018-07-21T09:02:22.758Z,760
2018-07-21T09:03:24.554Z,760
2018-07-21T09:04:26.348Z,780
2018-07-21T09:05:28.040Z,810
2018-07-21T09:06:29.752Z,845
2018-07-21T09:07:31.363Z,865
2018-07-21T09:08:33.066Z,870
2018-07-21T09:09:34.684Z,855
2018-07-21T09:10:36.378Z,830
2018-07-21T09:11:38.064Z,785
2018-07-21T09:12:39.882Z,750
2018-07-21T09:13:41.609Z,730
2018-07-21T09:14:43.343Z,710
2018-07-21T09:15:44.992Z,705
2018-07-21T09:16:46.759Z,710
2018-07-21T09:17:48.497Z,715
2018-07-21T09:18:50.158Z,720
2018-07-21T09:19:51.900Z,735
2018-07-21T09:20:53.665Z,765
2018-07-21T09:21:55.510Z,785
2018-07-21T09:22:57.278Z,810
2018-07-21T09:23:58.942Z,825
2018-07-21T09:25:00.623Z,830
2018-07-21T09:26:02.329Z,830
2018-07-21T09:27:04.022Z,830
2018-07-21T09:28:05.681Z,830
2018-07-21T09:29:07.407Z,830
2018-07-21T09:30:09.087Z,835
2018-07-21T09:31:10.774Z,850
2018-07-21T09:32:12.548Z,875
2018-07-21T09:33:14.210Z,900
2018-07-21T09:34:15.918Z,915
2018-07-21T09:35:17.637Z,905
2018-07-21T09:36:19.344Z,895
2018-07-21T09:37:20.951Z,865
2018-07-21T09:38:22.687Z,850
2018-07-21T09:39:24.466Z,885
2018-07-21T09:40:26.237Z,940
2018-07-21T09:41:28.022Z,980
2018-07-21T09:42:29.745Z,985
2018-07-21T09:43:31.425Z,965
2018-07-21T09:44:33.170Z,955
2018-07-21T09:45:34.856Z,950
2018-07-21T09:46:36.612Z,1000
2018-07-21T09:47:38.384Z,990
2018-07-21T09:48:40.003Z,1025
2018-07-21T09:49:41.752Z,1115
2018-07-21T09:50:43.468Z,985
2018-07-21T09:51:45.223Z,990
2018-07-21T09:52:46.927Z,975
2018-07-21T09:53:48.646Z,1035
2018-07-21T09:54:50.315Z,1125
2018-07-21T09:55:52.011Z,1190
2018-07-21T09:56:53.594Z,1335
2018-07-21T09:57:55.224Z,1315
2018-07-21T09:58:56.913Z,1060
2018-07-21T09:59:58.683Z,965
2018-07-21T10:01:00.325Z,945
2018-07-21T10:02:02.072Z,935
2018-07-21T10:03:03.659Z,945
2018-07-21T10:04:05.307Z,990
2018-07-21T10:05:07.038Z,995
2018-07-21T10:06:08.667Z,995
2018-07-21T10:07:10.371Z,925
2018-07-21T10:08:12.009Z,930
2018-07-21T10:09:13.765Z,1025
2018-07-21T10:10:15.465Z,1085
2018-07-21T10:11:17.253Z,1325
2018-07-21T10:12:18.957Z,1550
2018-07-21T10:13:20.637Z,1810
2018-07-21T10:14:22.336Z,1565
2018-07-21T10:15:24.037Z,1150
2018-07-21T10:16:25.729Z,940
2018-07-21T10:17:27.497Z,885
2018-07-21T10:18:29.277Z,1015
2018-07-21T10:19:30.954Z,2105
2018-07-21T10:20:32.695Z,2135
2018-07-21T10:21:34.434Z,2815
2018-07-21T10:22:36.187Z,3000
2018-07-21T10:23:38.031Z,2530
2018-07-21T10:24:39.763Z,2335
2018-07-21T10:25:41.413Z,2860
2018-07-21T10:26:43.203Z,2510
2018-07-21T10:27:44.955Z,2520
2018-07-21T10:28:46.699Z,2065
2018-07-21T10:29:48.424Z,1585
2018-07-21T10:30:50.074Z,1345
2018-07-21T10:31:51.715Z,1005
2018-07-21T10:32:53.457Z,1095
2018-07-21T10:33:55.195Z,1200
2018-07-21T10:34:56.880Z,1445
2018-07-21T10:35:58.551Z,1805
2018-07-21T10:37:00.190Z,1435
2018-07-21T10:38:01.930Z,1875
2018-07-21T10:39:03.618Z,2340
2018-07-21T10:40:05.293Z,3260
2018-07-21T10:41:06.955Z,3975
2018-07-21T10:42:08.657Z,4220
2018-07-21T10:43:10.314Z,3255
2018-07-21T10:44:12.122Z,4165
2018-07-21T10:45:13.816Z,4000
2018-07-21T10:46:15.520Z,3805
2018-07-21T10:47:17.296Z,3285
2018-07-21T10:48:19.080Z,3505
2018-07-21T10:49:20.847Z,3605
2018-07-21T10:50:22.552Z,3930
2018-07-21T10:51:24.401Z,4025
2018-07-21T10:52:26.140Z,4185
2018-07-21T10:53:27.995Z,3360
2018-07-21T10:54:29.767Z,2665
2018-07-21T10:55:31.399Z,2600
2018-07-21T10:56:33.131Z,2575
2018-07-21T10:57:35.097Z,2275
2018-07-21T10:58:36.824Z,1460
2018-07-21T10:59:38.628Z,1525
2018-07-21T11:00:40.632Z,2480
2018-07-21T11:01:42.349Z,2045
2018-07-21T11:02:44.137Z,4700
2018-07-21T11:03:45.895Z,4370
2018-07-21T11:04:47.595Z,4355
2018-07-21T11:05:49.419Z,4240
2018-07-21T11:06:51.096Z,4370
2018-07-21T11:07:53.020Z,4220
2018-07-21T11:08:54.790Z,4470
2018-07-21T11:09:56.532Z,4395
2018-07-21T11:10:58.275Z,3830
2018-07-21T11:12:00.025Z,3250
2018-07-21T11:13:01.909Z,2985
2018-07-21T11:14:03.650Z,2680
2018-07-21T11:15:05.423Z,4310
2018-07-21T11:16:07.096Z,4535
2018-07-21T11:17:08.877Z,4350
2018-07-21T11:18:10.607Z,4515
2018-07-21T11:19:12.406Z,4620
2018-07-21T11:20:14.310Z,4660
2018-07-21T11:21:16.014Z,4700
2018-07-21T11:22:17.741Z,4670
2018-07-21T11:23:19.491Z,4835
2018-07-21T11:24:21.231Z,4870
2018-07-21T11:25:23.206Z,3540
2018-07-21T11:26:24.947Z,2535
2018-07-21T11:27:26.775Z,2540
2018-07-21T11:28:28.517Z,2565
2018-07-21T11:29:30.318Z,2690
2018-07-21T11:30:32.096Z,2705
2018-07-21T11:31:34.009Z,2385
2018-07-21T11:32:35.776Z,1790
2018-07-21T11:33:37.563Z,1625
2018-07-21T11:34:39.385Z,1600
2018-07-21T11:35:41.098Z,1650
2018-07-21T11:36:42.693Z,1775
2018-07-21T11:37:44.470Z,1985
2018-07-21T11:38:46.335Z,2045
2018-07-21T11:39:48.194Z,2205
2018-07-21T11:40:49.988Z,2000
2018-07-21T11:41:51.684Z,1965
2018-07-21T11:42:53.356Z,2080
2018-07-21T11:43:55.172Z,2185
2018-07-21T11:44:56.874Z,2180
2018-07-21T11:45:58.682Z,2005
2018-07-21T11:47:00.353Z,1990
2018-07-21T11:48:02.183Z,2180
2018-07-21T11:49:03.950Z,2535
2018-07-21T11:50:05.659Z,3025
2018-07-21T11:51:07.456Z,2995
2018-07-21T11:52:09.174Z,3220
2018-07-21T11:53:10.904Z,2910
2018-07-21T11:54:12.656Z,2300
2018-07-21T11:55:14.358Z,2220
2018-07-21T11:56:16.197Z,2290
2018-07-21T11:57:17.919Z,1895
2018-07-21T11:58:19.789Z,1470
2018-07-21T11:59:21.573Z,1405
2018-07-21T12:00:23.335Z,1390
2018-07-21T12:01:25.070Z,1405
2018-07-21T12:02:26.817Z,1410
2018-07-21T12:03:28.517Z,1435
2018-07-21T12:04:30.225Z,1525
2018-07-21T12:05:31.920Z,1620
2018-07-21T12:06:33.666Z,1485
2018-07-21T12:07:35.424Z,1485
2018-07-21T12:08:37.330Z,1715
2018-07-21T12:09:39.193Z,1455
2018-07-21T12:10:40.858Z,1380
2018-07-21T12:11:42.650Z,1330
2018-07-21T12:12:44.294Z,1285
2018-07-21T12:13:45.986Z,1265
2018-07-21T12:14:47.723Z,1325
2018-07-21T12:15:49.398Z,1425
2018-07-21T12:16:51.197Z,1510
2018-07-21T12:17:52.881Z,2755
2018-07-21T12:18:54.699Z,4040
2018-07-21T12:19:56.633Z,4060
2018-07-21T12:20:58.273Z,4080
2018-07-21T12:22:00.288Z,4255
2018-07-21T12:23:01.981Z,3240
2018-07-21T12:24:03.828Z,3015
2018-07-21T12:25:05.576Z,2575
2018-07-21T12:26:07.347Z,1975
2018-07-21T12:27:09.047Z,1865
2018-07-21T12:28:10.808Z,1725
2018-07-21T12:29:12.510Z,1705
2018-07-21T12:30:14.298Z,1810
2018-07-21T12:31:15.999Z,4000
2018-07-21T12:32:17.682Z,2880
2018-07-21T12:33:19.408Z,4075
2018-07-21T12:34:21.311Z,2650
2018-07-21T12:35:22.971Z,2665
2018-07-21T12:36:24.654Z,2050
2018-07-21T12:37:26.478Z,1890
2018-07-21T12:38:28.260Z,1710
2018-07-21T12:39:30.043Z,1700
2018-07-21T12:40:31.772Z,2925
2018-07-21T12:41:33.457Z,1925
2018-07-21T12:42:35.167Z,3510
2018-07-21T12:43:36.908Z,2140
2018-07-21T12:44:38.739Z,1880
2018-07-21T12:45:40.389Z,2040
2018-07-21T12:46:42.235Z,4475
2018-07-21T12:47:43.957Z,3750
2018-07-21T12:48:45.636Z,3600
2018-07-21T12:49:47.387Z,3825
2018-07-21T12:50:49.058Z,3960
2018-07-21T12:51:50.795Z,4225
2018-07-21T12:52:52.530Z,4220
2018-07-21T12:53:54.288Z,2260
2018-07-21T12:54:56.119Z,2980
2018-07-21T12:55:58.082Z,1500
2018-07-21T12:56:59.817Z,1490
2018-07-21T12:58:01.647Z,1330
2018-07-21T12:59:03.420Z,1300
2018-07-21T13:00:05.221Z,1325
2018-07-21T13:01:06.987Z,1385
2018-07-21T13:02:08.741Z,2080
2018-07-21T13:03:10.492Z,3670
2018-07-21T13:04:12.199Z,1890
2018-07-21T13:05:13.917Z,1750
2018-07-21T13:06:15.690Z,1575
2018-07-21T13:07:17.422Z,1565
2018-07-21T13:08:19.172Z,1530
2018-07-21T13:09:20.960Z,1355
2018-07-21T13:10:22.759Z,1195
2018-07-21T13:11:24.438Z,1070
2018-07-21T13:12:26.204Z,945
2018-07-21T13:13:27.973Z,885
2018-07-21T13:14:29.707Z,855
2018-07-21T13:15:31.483Z,870
2018-07-21T13:16:33.228Z,820
2018-07-21T13:17:34.990Z,830
2018-07-21T13:18:36.714Z,865
2018-07-21T13:19:38.461Z,915
2018-07-21T13:20:40.127Z,950
2018-07-21T13:21:41.876Z,965
2018-07-21T13:22:43.547Z,955
2018-07-21T13:23:45.269Z,915
2018-07-21T13:24:46.991Z,905
2018-07-21T13:25:48.784Z,825
2018-07-21T13:26:50.564Z,765
2018-07-21T13:27:52.328Z,700
2018-07-21T13:28:54.101Z,640
2018-07-21T13:29:55.897Z,620
2018-07-21T13:30:57.688Z,605
2018-07-21T13:31:59.352Z,600
2018-07-21T13:33:01.048Z,590
2018-07-21T13:34:02.827Z,590
2018-07-21T13:35:04.547Z,570
2018-07-21T13:36:06.234Z,535
2018-07-21T13:37:08.007Z,500
2018-07-21T13:38:09.782Z,460
2018-07-21T13:39:11.476Z,420
2018-07-21T13:40:13.222Z,375
2018-07-21T13:41:14.905Z,340
2018-07-21T13:42:16.683Z,325
2018-07-21T13:43:18.325Z,305
2018-07-21T13:44:20.112Z,295
2018-07-21T13:45:21.890Z,300
2018-07-21T13:46:23.561Z,295
2018-07-21T13:47:25.345Z,295
2018-07-21T13:48:27.004Z,295
2018-07-21T13:49:28.694Z,290
2018-07-21T13:50:30.357Z,285
2018-07-21T13:51:32.142Z,280
2018-07-21T13:52:33.806Z,275
2018-07-21T13:53:35.523Z,265
2018-07-21T13:54:37.092Z,260
2018-07-21T13:55:38.935Z,255
2018-07-21T13:56:40.689Z,250
2018-07-21T13:57:42.426Z,250
2018-07-21T13:58:44.040Z,250
2018-07-21T13:59:45.753Z,255
2018-07-21T14:00:47.401Z,260
2018-07-21T14:01:49.120Z,265
2018-07-21T14:02:50.846Z,275
2018-07-21T14:03:52.643Z,280
2018-07-21T14:04:54.421Z,285
2018-07-21T14:05:56.178Z,300
2018-07-21T14:06:57.925Z,315
2018-07-21T14:07:59.633Z,330
2018-07-21T14:09:01.336Z,345
2018-07-21T14:10:02.962Z,360
2018-07-21T14:11:04.574Z,370
2018-07-21T14:12:06.237Z,390
2018-07-21T14:13:07.953Z,415
2018-07-21T14:14:09.708Z,450
2018-07-21T14:15:11.312Z,475
2018-07-21T14:16:13.080Z,520
2018-07-21T14:17:14.772Z,560
2018-07-21T14:18:16.529Z,595
2018-07-21T14:19:18.207Z,625
2018-07-21T14:20:19.858Z,645